Terminal Aerodrome Forecast
Issued by NWS Sioux Falls, SD

Home | Current Version | Previous Version | Graphics & Text | Print | Product List | Glossary On
Versions: 1 2 3 4 5 6 7 8 9 10 11 12 13 14 15
774
FTUS43 KFSD 172341
TAFHON
TAF
KHON 172341Z 1800/1824 16018G28KT P6SM SKC
     FM180100 15010KT P6SM SCT250
     FM181000 15009KT P6SM VCTS BKN100CB
     FM181400 15011G19KT P6SM SCT100=

USA.gov is the U.S. government's official web portal to all federal, state and local government web resources and services.